Forside
METAR-TAF:

METAR-TAF

Lufthavne :

Tjita, Rusland

Breddekreds: 52-05N, længdekreds: 113-29E, højde: 685 m

Aktuelle vejr

Denne rapport blev lavet for 25 minutter siden, kl. 00:30 UTC
Vind 8 kt fra syd
Temperatur -16°C
Fugtighed 78%
Tryk 1025 hPa
Sigt 10 km eller mere

METAR: UIAA 150030Z 19004MPS 9999 NSC M16/M19 Q1025 R29/490255 NOSIG RMK QFE710/0946

Tid: 09:55 (00:55 UTC)

Vejrudsigter

Denne rapport blev lavet for 1 time og 55 minutter siden, kl. 23:00 UTC
Foreløbig gælder fra 15 på 00 UTC til 15 på 24 UTC
Vind 12 kt fra vest med vindstød på up til 25 kt
Sigt 10 km eller mere
Spredte skyer i en højde af 4000 ft, Cumulonimbus.
Midlertidig
fra 15 på 00 UTC til 15 på 06 UTC
Vind 6 kt fra sydsydvest med vindstød på up til 17 kt

TAF: UIAA 142300Z 1500/1524 27006G13MPS 9999 SCT040CB TEMPO 1500/1506 21003G09MPS

Vejrobservationer og prognoser fra mere end 4000 lufthavne (METAR og TAF).

De gule og røde prikker repræsenterer de meteorologiske stationer.

Flyt musen over at se navnet på stationen.

Så klik over at se vejr observationer og prognoser.

At skifte det kort: Klik på de grønne knapper med et sort kors for at zoome ind; på den grønne knap med en bindestreg for at zoome ud; eller på de grønne pile for tilstødende kort.


METAR-TAF: